Archival Weather

Gondia Arpt/Birsi

Gondia Arpt/Birsi, India (VAGD)

Report from: Thursday, April 25, 2024 3:00 AM UTC
Current time: Saturday, June 22, 2024 10:31 AM UTC

Current weather – Weather history – Daily summaries
Weather forecast

Present weatherHaze
Temperature31.0°C (87.8°F)
Heat index37.8°C (100.0°F)
Dew point25.0°C (77.0°F)
Winds 2 kts (1 m/s, 2.3 mph) Southeast (140°)
Visibility3.1 mi. (5 km)
Clouds Few clouds 10,000 ft. (3,048 m)
Altimeter29.83 in.Hg (1010 mB)
Relative humidity71 %
Density altitude2,362 ft. (720 m)
Remarks No significant changes expected in the next two hours
Flight conditions Marginal Visual Meteorological Conditions
Raw dataVAGD 250300Z 14002KT 5000 HZ FEW100 31/25 Q1010 NOSIG
An error has occurred. This application may no longer respond until reloaded. Reload 🗙